sensor_id;sensor_type;location;lat;lon;timestamp;pressure;altitude;pressure_sealevel;temperature;humidity
40872;BME280;26591;43.264;26.940;2023-04-24T00:01:13;98835.94;;;10.99;61.94
40872;BME280;26591;43.264;26.940;2023-04-24T00:03:40;98835.72;;;11.09;61.36
40872;BME280;26591;43.264;26.940;2023-04-24T00:06:06;98827.00;;;11.00;61.41
40872;BME280;26591;43.264;26.940;2023-04-24T00:08:34;98829.06;;;11.13;60.84
40872;BME280;26591;43.264;26.940;2023-04-24T00:11:00;98827.50;;;11.27;60.34
40872;BME280;26591;43.264;26.940;2023-04-24T00:13:25;98828.91;;;11.38;60.14
40872;BME280;26591;43.264;26.940;2023-04-24T00:15:54;98819.69;;;11.25;60.05
40872;BME280;26591;43.264;26.940;2023-04-24T00:18:20;98826.94;;;11.08;59.37
40872;BME280;26591;43.264;26.940;2023-04-24T00:20:45;98825.41;;;10.82;61.06
40872;BME280;26591;43.264;26.940;2023-04-24T00:23:12;98822.84;;;10.66;61.57
40872;BME280;26591;43.264;26.940;2023-04-24T00:25:38;98827.34;;;10.89;61.57
40872;BME280;26591;43.264;26.940;2023-04-24T00:28:04;98812.59;;;10.63;61.91
40872;BME280;26591;43.264;26.940;2023-04-24T00:30:29;98816.22;;;10.70;61.61
40872;BME280;26591;43.264;26.940;2023-04-24T00:32:58;98812.31;;;10.89;61.72
40872;BME280;26591;43.264;26.940;2023-04-24T00:35:24;98810.47;;;10.90;61.84
40872;BME280;26591;43.264;26.940;2023-04-24T00:37:49;98808.81;;;10.89;61.73
40872;BME280;26591;43.264;26.940;2023-04-24T00:40:15;98808.00;;;10.88;61.87
40872;BME280;26591;43.264;26.940;2023-04-24T00:42:41;98804.75;;;10.78;61.94
40872;BME280;26591;43.264;26.940;2023-04-24T00:45:07;98798.88;;;10.59;62.63
40872;BME280;26591;43.264;26.940;2023-04-24T00:47:33;98800.34;;;10.62;63.06
40872;BME280;26591;43.264;26.940;2023-04-24T00:50:01;98804.84;;;10.53;62.59
40872;BME280;26591;43.264;26.940;2023-04-24T00:52:27;98804.72;;;10.46;63.66
40872;BME280;26591;43.264;26.940;2023-04-24T00:54:53;98803.38;;;10.59;63.09
40872;BME280;26591;43.264;26.940;2023-04-24T00:57:19;98793.47;;;10.44;63.37
40872;BME280;26591;43.264;26.940;2023-04-24T00:59:45;98797.28;;;10.42;63.08
40872;BME280;26591;43.264;26.940;2023-04-24T01:02:11;98797.16;;;10.43;62.58
40872;BME280;26591;43.264;26.940;2023-04-24T01:04:37;98793.66;;;10.43;62.93
40872;BME280;26591;43.264;26.940;2023-04-24T01:07:03;98792.47;;;10.45;62.71
40872;BME280;26591;43.264;26.940;2023-04-24T01:09:36;98794.28;;;10.53;63.17
40872;BME280;26591;43.264;26.940;2023-04-24T01:12:01;98799.56;;;10.53;62.67
40872;BME280;26591;43.264;26.940;2023-04-24T01:14:28;98794.66;;;10.42;62.39
40872;BME280;26591;43.264;26.940;2023-04-24T01:16:53;98797.31;;;10.25;62.44
40872;BME280;26591;43.264;26.940;2023-04-24T01:19:19;98796.03;;;10.21;63.05
40872;BME280;26591;43.264;26.940;2023-04-24T01:21:45;98792.16;;;10.32;63.01
40872;BME280;26591;43.264;26.940;2023-04-24T01:24:12;98787.56;;;10.42;62.01
40872;BME280;26591;43.264;26.940;2023-04-24T01:26:38;98795.19;;;10.29;62.33
40872;BME280;26591;43.264;26.940;2023-04-24T01:29:03;98796.13;;;10.36;62.76
40872;BME280;26591;43.264;26.940;2023-04-24T01:31:29;98797.47;;;10.40;62.21
40872;BME280;26591;43.264;26.940;2023-04-24T01:33:56;98793.50;;;10.36;62.53
40872;BME280;26591;43.264;26.940;2023-04-24T01:36:23;98790.88;;;10.28;62.43
40872;BME280;26591;43.264;26.940;2023-04-24T01:38:50;98788.72;;;10.31;62.81
40872;BME280;26591;43.264;26.940;2023-04-24T01:41:16;98789.84;;;10.37;62.49
40872;BME280;26591;43.264;26.940;2023-04-24T01:43:57;98790.03;;;10.44;62.48
40872;BME280;26591;43.264;26.940;2023-04-24T01:46:27;98783.44;;;10.23;62.59
40872;BME280;26591;43.264;26.940;2023-04-24T01:48:53;98790.50;;;10.31;62.69
40872;BME280;26591;43.264;26.940;2023-04-24T01:51:18;98788.88;;;10.30;62.78
40872;BME280;26591;43.264;26.940;2023-04-24T01:53:44;98793.03;;;10.24;63.72
40872;BME280;26591;43.264;26.940;2023-04-24T01:56:10;98781.47;;;10.17;63.34
40872;BME280;26591;43.264;26.940;2023-04-24T01:58:36;98786.78;;;10.17;63.17
40872;BME280;26591;43.264;26.940;2023-04-24T02:01:01;98776.06;;;10.10;63.44
40872;BME280;26591;43.264;26.940;2023-04-24T02:03:27;98779.22;;;9.97;64.14
40872;BME280;26591;43.264;26.940;2023-04-24T02:05:52;98780.16;;;10.13;63.24
40872;BME280;26591;43.264;26.940;2023-04-24T02:08:18;98781.16;;;10.20;63.29
40872;BME280;26591;43.264;26.940;2023-04-24T02:10:43;98775.06;;;10.11;63.63
40872;BME280;26591;43.264;26.940;2023-04-24T02:13:09;98776.06;;;10.02;63.48
40872;BME280;26591;43.264;26.940;2023-04-24T02:15:35;98778.03;;;10.08;63.83
40872;BME280;26591;43.264;26.940;2023-04-24T02:18:01;98776.75;;;9.96;64.26
40872;BME280;26591;43.264;26.940;2023-04-24T02:20:27;98769.31;;;9.91;64.12
40872;BME280;26591;43.264;26.940;2023-04-24T02:22:52;98767.50;;;10.00;63.31
40872;BME280;26591;43.264;26.940;2023-04-24T02:25:17;98769.81;;;9.95;63.47
40872;BME280;26591;43.264;26.940;2023-04-24T02:27:43;98767.38;;;9.76;64.24
40872;BME280;26591;43.264;26.940;2023-04-24T02:30:09;98770.19;;;9.67;64.18
40872;BME280;26591;43.264;26.940;2023-04-24T02:32:35;98759.75;;;9.65;64.88
40872;BME280;26591;43.264;26.940;2023-04-24T02:35:01;98767.38;;;9.60;64.40
40872;BME280;26591;43.264;26.940;2023-04-24T02:37:26;98770.81;;;9.77;64.59
40872;BME280;26591;43.264;26.940;2023-04-24T02:39:51;98759.91;;;9.88;63.84
40872;BME280;26591;43.264;26.940;2023-04-24T02:42:17;98761.53;;;9.89;63.82
40872;BME280;26591;43.264;26.940;2023-04-24T02:44:45;98769.84;;;9.78;64.48
40872;BME280;26591;43.264;26.940;2023-04-24T02:47:10;98767.69;;;9.73;64.17
40872;BME280;26591;43.264;26.940;2023-04-24T02:49:36;98761.78;;;9.63;65.02
40872;BME280;26591;43.264;26.940;2023-04-24T02:52:01;98766.41;;;9.61;65.11
40872;BME280;26591;43.264;26.940;2023-04-24T02:54:27;98757.63;;;9.44;64.96
40872;BME280;26591;43.264;26.940;2023-04-24T02:56:52;98753.84;;;9.38;65.78
40872;BME280;26591;43.264;26.940;2023-04-24T02:59:17;98756.97;;;9.50;65.78
40872;BME280;26591;43.264;26.940;2023-04-24T03:01:43;98755.81;;;9.61;65.62
40872;BME280;26591;43.264;26.940;2023-04-24T03:04:08;98767.72;;;9.57;65.08
40872;BME280;26591;43.264;26.940;2023-04-24T03:06:35;98761.91;;;9.61;65.16
40872;BME280;26591;43.264;26.940;2023-04-24T03:09:01;98756.31;;;9.56;65.08
40872;BME280;26591;43.264;26.940;2023-04-24T03:11:26;98765.25;;;9.55;65.61
40872;BME280;26591;43.264;26.940;2023-04-24T03:13:52;98759.94;;;9.64;65.20
40872;BME280;26591;43.264;26.940;2023-04-24T03:16:29;98762.91;;;9.69;65.35
40872;BME280;26591;43.264;26.940;2023-04-24T03:18:55;98764.06;;;9.74;64.90
40872;BME280;26591;43.264;26.940;2023-04-24T03:21:21;98761.94;;;9.70;64.88
40872;BME280;26591;43.264;26.940;2023-04-24T03:23:47;98765.34;;;9.78;64.75
40872;BME280;26591;43.264;26.940;2023-04-24T03:26:12;98761.25;;;9.76;64.82
40872;BME280;26591;43.264;26.940;2023-04-24T03:28:38;98761.41;;;9.83;64.86
40872;BME280;26591;43.264;26.940;2023-04-24T03:31:05;98770.75;;;10.10;64.32
40872;BME280;26591;43.264;26.940;2023-04-24T03:33:30;98766.72;;;10.31;64.26
40872;BME280;26591;43.264;26.940;2023-04-24T03:35:56;98769.09;;;10.65;63.72
40872;BME280;26591;43.264;26.940;2023-04-24T03:38:22;98767.84;;;10.84;63.37
40872;BME280;26591;43.264;26.940;2023-04-24T03:40:49;98776.31;;;11.03;63.28
40872;BME280;26591;43.264;26.940;2023-04-24T03:43:14;98767.66;;;11.56;61.83
40872;BME280;26591;43.264;26.940;2023-04-24T03:45:40;98776.13;;;11.89;61.28
40872;BME280;26591;43.264;26.940;2023-04-24T03:48:07;98767.84;;;12.23;60.21
40872;BME280;26591;43.264;26.940;2023-04-24T03:50:33;98773.31;;;12.36;59.62
40872;BME280;26591;43.264;26.940;2023-04-24T03:52:59;98771.00;;;13.00;58.08
40872;BME280;26591;43.264;26.940;2023-04-24T03:55:25;98774.38;;;13.30;56.33
40872;BME280;26591;43.264;26.940;2023-04-24T03:57:50;98775.50;;;13.64;55.43
40872;BME280;26591;43.264;26.940;2023-04-24T04:00:16;98777.31;;;14.21;59.29
40872;BME280;26591;43.264;26.940;2023-04-24T04:02:44;98785.09;;;15.13;54.23
40872;BME280;26591;43.264;26.940;2023-04-24T04:05:09;98778.94;;;15.25;52.25
40872;BME280;26591;43.264;26.940;2023-04-24T04:07:35;98777.31;;;15.51;51.72
40872;BME280;26591;43.264;26.940;2023-04-24T04:10:00;98775.88;;;16.16;49.47
40872;BME280;26591;43.264;26.940;2023-04-24T04:12:26;98786.41;;;16.63;49.63
40872;BME280;26591;43.264;26.940;2023-04-24T04:14:52;98777.66;;;16.95;48.11
40872;BME280;26591;43.264;26.940;2023-04-24T04:17:18;98772.94;;;16.83;48.18
40872;BME280;26591;43.264;26.940;2023-04-24T04:19:43;98778.28;;;17.29;47.07
40872;BME280;26591;43.264;26.940;2023-04-24T04:22:09;98779.44;;;17.65;46.62
40872;BME280;26591;43.264;26.940;2023-04-24T04:24:34;98780.09;;;18.11;45.34
40872;BME280;26591;43.264;26.940;2023-04-24T04:27:15;98788.50;;;18.52;43.18
40872;BME280;26591;43.264;26.940;2023-04-24T04:29:41;98788.78;;;18.25;45.06
40872;BME280;26591;43.264;26.940;2023-04-24T04:32:07;98781.34;;;18.64;43.60
40872;BME280;26591;43.264;26.940;2023-04-24T04:34:32;98784.63;;;19.15;42.45
40872;BME280;26591;43.264;26.940;2023-04-24T04:36:58;98778.41;;;19.57;42.09
40872;BME280;26591;43.264;26.940;2023-04-24T04:39:26;98777.06;;;20.14;41.30
40872;BME280;26591;43.264;26.940;2023-04-24T04:41:53;98773.94;;;20.46;40.65
40872;BME280;26591;43.264;26.940;2023-04-24T04:44:19;98781.47;;;20.85;39.72
40872;BME280;26591;43.264;26.940;2023-04-24T04:46:44;98786.81;;;20.97;39.63
40872;BME280;26591;43.264;26.940;2023-04-24T04:49:10;98781.06;;;21.22;38.98
40872;BME280;26591;43.264;26.940;2023-04-24T04:51:36;98782.50;;;21.59;37.66
40872;BME280;26591;43.264;26.940;2023-04-24T04:54:01;98784.94;;;21.77;37.75
40872;BME280;26591;43.264;26.940;2023-04-24T04:56:27;98787.28;;;22.08;36.90
40872;BME280;26591;43.264;26.940;2023-04-24T04:58:53;98786.81;;;21.94;37.14
40872;BME280;26591;43.264;26.940;2023-04-24T05:01:19;98778.09;;;22.26;35.95
40872;BME280;26591;43.264;26.940;2023-04-24T05:03:44;98783.72;;;22.42;36.40
40872;BME280;26591;43.264;26.940;2023-04-24T05:06:10;98774.28;;;22.66;35.43
40872;BME280;26591;43.264;26.940;2023-04-24T05:08:35;98776.38;;;22.81;35.05
40872;BME280;26591;43.264;26.940;2023-04-24T05:11:01;98774.47;;;22.82;36.23
40872;BME280;26591;43.264;26.940;2023-04-24T05:13:26;98772.94;;;22.64;35.79
40872;BME280;26591;43.264;26.940;2023-04-24T05:15:52;98773.75;;;22.64;35.74
40872;BME280;26591;43.264;26.940;2023-04-24T05:18:17;98773.72;;;22.20;35.90
40872;BME280;26591;43.264;26.940;2023-04-24T05:20:43;98768.47;;;21.91;35.09
40872;BME280;26591;43.264;26.940;2023-04-24T05:23:09;98768.16;;;22.09;35.71
40872;BME280;26591;43.264;26.940;2023-04-24T05:25:35;98772.06;;;21.97;35.76
40872;BME280;26591;43.264;26.940;2023-04-24T05:28:01;98771.56;;;21.83;36.13
40872;BME280;26591;43.264;26.940;2023-04-24T05:30:27;98761.28;;;21.97;35.52
40872;BME280;26591;43.264;26.940;2023-04-24T05:32:53;98765.63;;;21.00;36.94
40872;BME280;26591;43.264;26.940;2023-04-24T05:35:18;98767.94;;;21.26;37.07
40872;BME280;26591;43.264;26.940;2023-04-24T05:37:44;98762.06;;;21.97;35.40
40872;BME280;26591;43.264;26.940;2023-04-24T05:40:12;98761.66;;;21.20;36.58
40872;BME280;26591;43.264;26.940;2023-04-24T05:42:38;98757.75;;;21.45;36.54
40872;BME280;26591;43.264;26.940;2023-04-24T05:45:04;98761.38;;;21.04;37.24
40872;BME280;26591;43.264;26.940;2023-04-24T05:47:29;98753.91;;;21.41;38.08
40872;BME280;26591;43.264;26.940;2023-04-24T05:49:55;98762.41;;;21.15;38.58
40872;BME280;26591;43.264;26.940;2023-04-24T05:52:20;98757.03;;;21.32;37.87
40872;BME280;26591;43.264;26.940;2023-04-24T05:54:46;98758.66;;;20.47;38.76
40872;BME280;26591;43.264;26.940;2023-04-24T05:57:11;98754.56;;;20.85;38.27
40872;BME280;26591;43.264;26.940;2023-04-24T05:59:37;98757.41;;;20.78;37.69
40872;BME280;26591;43.264;26.940;2023-04-24T06:02:21;98760.78;;;20.85;38.71
40872;BME280;26591;43.264;26.940;2023-04-24T06:04:47;98754.09;;;20.47;39.03
40872;BME280;26591;43.264;26.940;2023-04-24T06:07:12;98765.09;;;20.46;38.63
40872;BME280;26591;43.264;26.940;2023-04-24T06:09:38;98763.63;;;20.67;38.25
40872;BME280;26591;43.264;26.940;2023-04-24T06:12:04;98753.69;;;20.03;39.10
40872;BME280;26591;43.264;26.940;2023-04-24T06:14:33;98755.69;;;19.95;39.86
40872;BME280;26591;43.264;26.940;2023-04-24T06:16:59;98763.50;;;19.73;40.97
40872;BME280;26591;43.264;26.940;2023-04-24T06:19:25;98762.59;;;18.45;41.82
40872;BME280;26591;43.264;26.940;2023-04-24T06:21:50;98765.81;;;19.03;41.66
40872;BME280;26591;43.264;26.940;2023-04-24T06:24:16;98760.06;;;19.42;40.04
40872;BME280;26591;43.264;26.940;2023-04-24T06:26:42;98756.59;;;19.54;40.57
40872;BME280;26591;43.264;26.940;2023-04-24T06:29:07;98760.69;;;19.14;42.36
40872;BME280;26591;43.264;26.940;2023-04-24T06:31:35;98766.78;;;20.11;41.83
40872;BME280;26591;43.264;26.940;2023-04-24T06:34:03;98755.13;;;19.27;44.17
40872;BME280;26591;43.264;26.940;2023-04-24T06:36:28;98753.13;;;20.65;43.01
40872;BME280;26591;43.264;26.940;2023-04-24T06:38:54;98752.63;;;20.97;38.96
40872;BME280;26591;43.264;26.940;2023-04-24T06:41:19;98754.00;;;19.47;41.47
40872;BME280;26591;43.264;26.940;2023-04-24T06:43:45;98764.16;;;19.02;41.34
40872;BME280;26591;43.264;26.940;2023-04-24T06:46:10;98753.59;;;18.58;42.85
40872;BME280;26591;43.264;26.940;2023-04-24T06:48:37;98756.03;;;18.90;42.45
40872;BME280;26591;43.264;26.940;2023-04-24T06:51:02;98754.78;;;19.24;41.25
40872;BME280;26591;43.264;26.940;2023-04-24T06:53:28;98756.34;;;18.52;43.60
40872;BME280;26591;43.264;26.940;2023-04-24T06:55:53;98756.97;;;19.15;42.23
40872;BME280;26591;43.264;26.940;2023-04-24T06:58:19;98754.28;;;20.05;41.11
40872;BME280;26591;43.264;26.940;2023-04-24T07:00:45;98752.75;;;19.73;41.36
40872;BME280;26591;43.264;26.940;2023-04-24T07:03:10;98756.88;;;18.91;43.33
40872;BME280;26591;43.264;26.940;2023-04-24T07:05:36;98750.84;;;18.28;44.14
40872;BME280;26591;43.264;26.940;2023-04-24T07:08:03;98753.88;;;17.44;45.47
40872;BME280;26591;43.264;26.940;2023-04-24T07:10:29;98751.63;;;17.15;47.01
40872;BME280;26591;43.264;26.940;2023-04-24T07:12:55;98752.31;;;17.04;46.84
40872;BME280;26591;43.264;26.940;2023-04-24T07:15:23;98745.19;;;17.74;45.96
40872;BME280;26591;43.264;26.940;2023-04-24T07:17:49;98740.78;;;17.61;46.60
40872;BME280;26591;43.264;26.940;2023-04-24T07:20:15;98753.69;;;18.14;45.59
40872;BME280;26591;43.264;26.940;2023-04-24T07:22:52;98743.44;;;17.86;47.03
40872;BME280;26591;43.264;26.940;2023-04-24T07:25:19;98749.28;;;17.76;44.59
40872;BME280;26591;43.264;26.940;2023-04-24T07:27:44;98739.59;;;17.57;45.34
40872;BME280;26591;43.264;26.940;2023-04-24T07:30:13;98737.81;;;18.32;44.77
40872;BME280;26591;43.264;26.940;2023-04-24T07:32:38;98743.31;;;18.55;44.81
40872;BME280;26591;43.264;26.940;2023-04-24T07:35:04;98738.59;;;18.69;44.15
40872;BME280;26591;43.264;26.940;2023-04-24T07:37:29;98744.50;;;18.59;43.89
40872;BME280;26591;43.264;26.940;2023-04-24T07:39:55;98746.94;;;18.91;43.46
40872;BME280;26591;43.264;26.940;2023-04-24T07:42:21;98752.59;;;18.71;42.88
40872;BME280;26591;43.264;26.940;2023-04-24T07:44:52;98745.63;;;18.14;45.02
40872;BME280;26591;43.264;26.940;2023-04-24T07:47:18;98747.72;;;18.31;44.26
40872;BME280;26591;43.264;26.940;2023-04-24T07:49:43;98738.28;;;17.84;45.77
40872;BME280;26591;43.264;26.940;2023-04-24T07:52:12;98743.34;;;17.49;46.32
40872;BME280;26591;43.264;26.940;2023-04-24T07:54:55;98744.16;;;18.00;45.01
40872;BME280;26591;43.264;26.940;2023-04-24T07:57:25;98743.56;;;18.17;45.08
40872;BME280;26591;43.264;26.940;2023-04-24T07:59:51;98738.41;;;18.52;44.47
40872;BME280;26591;43.264;26.940;2023-04-24T08:02:16;98748.03;;;18.04;45.05
40872;BME280;26591;43.264;26.940;2023-04-24T08:04:43;98749.97;;;18.53;44.67
40872;BME280;26591;43.264;26.940;2023-04-24T08:07:08;98745.72;;;17.82;46.25
40872;BME280;26591;43.264;26.940;2023-04-24T08:09:34;98736.59;;;17.90;46.02
40872;BME280;26591;43.264;26.940;2023-04-24T08:11:59;98750.91;;;18.21;46.60
40872;BME280;26591;43.264;26.940;2023-04-24T08:14:25;98738.13;;;18.23;46.59
40872;BME280;26591;43.264;26.940;2023-04-24T08:16:53;98737.97;;;18.55;45.01
40872;BME280;26591;43.264;26.940;2023-04-24T08:19:20;98738.75;;;18.56;44.97
40872;BME280;26591;43.264;26.940;2023-04-24T08:21:45;98742.66;;;18.41;46.13
40872;BME280;26591;43.264;26.940;2023-04-24T08:24:11;98727.66;;;18.71;44.80
40872;BME280;26591;43.264;26.940;2023-04-24T08:26:36;98729.06;;;18.73;44.79
40872;BME280;26591;43.264;26.940;2023-04-24T08:29:02;98733.22;;;18.69;45.16
40872;BME280;26591;43.264;26.940;2023-04-24T08:31:27;98732.38;;;18.87;45.48
40872;BME280;26591;43.264;26.940;2023-04-24T08:33:53;98725.63;;;18.17;44.56
40872;BME280;26591;43.264;26.940;2023-04-24T08:36:18;98721.03;;;18.24;45.48
40872;BME280;26591;43.264;26.940;2023-04-24T08:38:45;98727.94;;;18.13;44.66
40872;BME280;26591;43.264;26.940;2023-04-24T08:41:14;98721.91;;;18.37;44.00
40872;BME280;26591;43.264;26.940;2023-04-24T08:43:40;98727.09;;;18.32;44.63
40872;BME280;26591;43.264;26.940;2023-04-24T08:46:06;98712.47;;;18.34;44.64
40872;BME280;26591;43.264;26.940;2023-04-24T08:48:31;98706.09;;;18.47;45.33
40872;BME280;26591;43.264;26.940;2023-04-24T08:50:59;98714.69;;;18.37;45.38
40872;BME280;26591;43.264;26.940;2023-04-24T08:53:25;98699.84;;;18.53;44.54
40872;BME280;26591;43.264;26.940;2023-04-24T08:55:51;98719.28;;;18.79;44.46
40872;BME280;26591;43.264;26.940;2023-04-24T08:58:19;98704.16;;;18.54;45.06
40872;BME280;26591;43.264;26.940;2023-04-24T09:00:45;98708.41;;;18.62;45.45
40872;BME280;26591;43.264;26.940;2023-04-24T09:03:16;98706.44;;;18.69;45.32
40872;BME280;26591;43.264;26.940;2023-04-24T09:05:46;98703.25;;;18.60;44.92
40872;BME280;26591;43.264;26.940;2023-04-24T09:08:13;98705.72;;;18.62;46.02
40872;BME280;26591;43.264;26.940;2023-04-24T09:10:40;98701.41;;;18.61;45.99
40872;BME280;26591;43.264;26.940;2023-04-24T09:13:06;98699.22;;;18.70;45.20
40872;BME280;26591;43.264;26.940;2023-04-24T09:15:34;98702.44;;;18.60;45.22
40872;BME280;26591;43.264;26.940;2023-04-24T09:18:09;98697.34;;;18.70;45.74
40872;BME280;26591;43.264;26.940;2023-04-24T09:20:58;98694.34;;;19.09;44.45
40872;BME280;26591;43.264;26.940;2023-04-24T09:23:30;98693.63;;;18.71;45.80
40872;BME280;26591;43.264;26.940;2023-04-24T09:25:58;98694.94;;;18.81;44.57
40872;BME280;26591;43.264;26.940;2023-04-24T09:28:45;98665.38;;;18.87;45.03
40872;BME280;26591;43.264;26.940;2023-04-24T09:31:17;98684.88;;;18.95;44.67
40872;BME280;26591;43.264;26.940;2023-04-24T09:36:30;98677.81;;;18.82;45.25
40872;BME280;26591;43.264;26.940;2023-04-24T09:39:01;98684.25;;;18.92;44.56
40872;BME280;26591;43.264;26.940;2023-04-24T09:41:27;98672.38;;;18.88;44.14
40872;BME280;26591;43.264;26.940;2023-04-24T09:43:55;98668.66;;;19.01;44.52
40872;BME280;26591;43.264;26.940;2023-04-24T09:46:21;98676.53;;;19.39;44.08
40872;BME280;26591;43.264;26.940;2023-04-24T09:48:48;98674.44;;;18.86;44.98
40872;BME280;26591;43.264;26.940;2023-04-24T09:51:14;98664.50;;;19.17;44.39
40872;BME280;26591;43.264;26.940;2023-04-24T09:53:45;98679.31;;;19.44;42.87
40872;BME280;26591;43.264;26.940;2023-04-24T09:56:11;98677.47;;;19.32;43.42
40872;BME280;26591;43.264;26.940;2023-04-24T09:58:40;98651.44;;;19.57;44.01
40872;BME280;26591;43.264;26.940;2023-04-24T10:01:05;98640.78;;;19.86;43.67
40872;BME280;26591;43.264;26.940;2023-04-24T10:03:32;98653.88;;;19.70;43.15
40872;BME280;26591;43.264;26.940;2023-04-24T10:06:02;98657.75;;;19.74;42.79
40872;BME280;26591;43.264;26.940;2023-04-24T10:08:35;98633.66;;;19.79;42.63
40872;BME280;26591;43.264;26.940;2023-04-24T10:11:07;98650.50;;;19.99;43.04
40872;BME280;26591;43.264;26.940;2023-04-24T10:13:33;98645.38;;;20.26;41.95
40872;BME280;26591;43.264;26.940;2023-04-24T10:16:04;98646.81;;;20.17;42.73
40872;BME280;26591;43.264;26.940;2023-04-24T10:18:30;98633.66;;;20.03;42.39
40872;BME280;26591;43.264;26.940;2023-04-24T10:20:59;98632.06;;;19.66;42.18
40872;BME280;26591;43.264;26.940;2023-04-24T10:23:25;98651.31;;;19.63;42.74
40872;BME280;26591;43.264;26.940;2023-04-24T10:25:52;98641.53;;;19.10;42.50
40872;BME280;26591;43.264;26.940;2023-04-24T10:28:18;98630.66;;;19.64;41.77
40872;BME280;26591;43.264;26.940;2023-04-24T10:30:45;98643.50;;;19.97;41.41
40872;BME280;26591;43.264;26.940;2023-04-24T10:33:11;98633.81;;;19.96;42.42
40872;BME280;26591;43.264;26.940;2023-04-24T10:35:41;98618.72;;;19.83;42.96
40872;BME280;26591;43.264;26.940;2023-04-24T10:38:16;98623.66;;;20.56;41.37
40872;BME280;26591;43.264;26.940;2023-04-24T10:40:43;98632.09;;;20.19;40.23
40872;BME280;26591;43.264;26.940;2023-04-24T10:43:09;98626.09;;;19.88;40.61
40872;BME280;26591;43.264;26.940;2023-04-24T10:45:37;98626.16;;;19.29;41.50
40872;BME280;26591;43.264;26.940;2023-04-24T10:50:52;98633.34;;;19.28;40.82
40872;BME280;26591;43.264;26.940;2023-04-24T10:53:20;98630.94;;;19.39;40.17
40872;BME280;26591;43.264;26.940;2023-04-24T10:55:50;98615.25;;;19.59;40.53
40872;BME280;26591;43.264;26.940;2023-04-24T10:58:17;98637.09;;;20.27;39.30
40872;BME280;26591;43.264;26.940;2023-04-24T11:00:58;98631.91;;;19.97;38.18
40872;BME280;26591;43.264;26.940;2023-04-24T11:03:28;98617.00;;;19.77;38.97
40872;BME280;26591;43.264;26.940;2023-04-24T11:08:49;98617.69;;;19.73;39.94
40872;BME280;26591;43.264;26.940;2023-04-24T11:11:17;98617.28;;;20.05;39.35
40872;BME280;26591;43.264;26.940;2023-04-24T11:19:04;98607.97;;;20.36;38.43
40872;BME280;26591;43.264;26.940;2023-04-24T11:24:32;98605.84;;;20.84;38.60
40872;BME280;26591;43.264;26.940;2023-04-24T11:27:21;98606.25;;;20.47;39.80
40872;BME280;26591;43.264;26.940;2023-04-24T11:32:37;98612.78;;;20.51;39.34
40872;BME280;26591;43.264;26.940;2023-04-24T11:37:39;98599.06;;;19.54;41.56
40872;BME280;26591;43.264;26.940;2023-04-24T11:40:07;98605.03;;;19.32;42.52
40872;BME280;26591;43.264;26.940;2023-04-24T11:42:36;98615.50;;;19.46;42.62
40872;BME280;26591;43.264;26.940;2023-04-24T11:45:07;98611.78;;;19.35;42.93
40872;BME280;26591;43.264;26.940;2023-04-24T11:47:33;98613.88;;;18.97;43.45
40872;BME280;26591;43.264;26.940;2023-04-24T11:50:01;98619.47;;;19.19;43.60
40872;BME280;26591;43.264;26.940;2023-04-24T11:52:27;98620.53;;;19.30;43.24
40872;BME280;26591;43.264;26.940;2023-04-24T11:54:53;98625.56;;;19.27;45.33
40872;BME280;26591;43.264;26.940;2023-04-24T11:57:19;98628.22;;;18.60;45.04
40872;BME280;26591;43.264;26.940;2023-04-24T11:59:46;98617.22;;;18.50;47.17
40872;BME280;26591;43.264;26.940;2023-04-24T12:04:48;98640.75;;;18.90;48.66
40872;BME280;26591;43.264;26.940;2023-04-24T12:07:13;98647.34;;;18.64;51.04
40872;BME280;26591;43.264;26.940;2023-04-24T12:09:50;98642.19;;;18.63;50.58
40872;BME280;26591;43.264;26.940;2023-04-24T12:12:20;98644.06;;;18.62;52.35
40872;BME280;26591;43.264;26.940;2023-04-24T12:14:50;98641.03;;;18.09;58.95
40872;BME280;26591;43.264;26.940;2023-04-24T12:17:17;98626.56;;;17.80;54.68
40872;BME280;26591;43.264;26.940;2023-04-24T12:19:47;98643.50;;;17.55;59.63
40872;BME280;26591;43.264;26.940;2023-04-24T12:22:13;98618.28;;;17.44;59.00
40872;BME280;26591;43.264;26.940;2023-04-24T12:24:58;98608.09;;;17.34;59.51
40872;BME280;26591;43.264;26.940;2023-04-24T12:27:28;98589.97;;;16.60;58.63
40872;BME280;26591;43.264;26.940;2023-04-24T12:29:58;98581.00;;;16.48;55.16
40872;BME280;26591;43.264;26.940;2023-04-24T12:32:24;98570.72;;;16.52;57.23
40872;BME280;26591;43.264;26.940;2023-04-24T12:34:51;98571.69;;;16.57;57.45
40872;BME280;26591;43.264;26.940;2023-04-24T12:37:25;98560.03;;;16.77;57.80
40872;BME280;26591;43.264;26.940;2023-04-24T12:40:00;98554.97;;;17.19;58.69
40872;BME280;26591;43.264;26.940;2023-04-24T12:42:27;98560.56;;;18.35;59.01
40872;BME280;26591;43.264;26.940;2023-04-24T12:44:57;98568.00;;;18.75;55.16
40872;BME280;26591;43.264;26.940;2023-04-24T12:47:24;98558.09;;;18.75;57.15
40872;BME280;26591;43.264;26.940;2023-04-24T12:49:49;98545.56;;;19.00;47.47
40872;BME280;26591;43.264;26.940;2023-04-24T12:52:18;98547.31;;;18.94;51.28
40872;BME280;26591;43.264;26.940;2023-04-24T12:54:45;98546.13;;;19.14;50.51
40872;BME280;26591;43.264;26.940;2023-04-24T12:57:11;98539.66;;;19.62;50.60
40872;BME280;26591;43.264;26.940;2023-04-24T12:59:36;98534.22;;;20.15;51.44
40872;BME280;26591;43.264;26.940;2023-04-24T13:02:02;98537.44;;;20.46;48.97
40872;BME280;26591;43.264;26.940;2023-04-24T13:04:27;98533.09;;;20.11;47.43
40872;BME280;26591;43.264;26.940;2023-04-24T13:06:53;98532.22;;;20.22;48.89
40872;BME280;26591;43.264;26.940;2023-04-24T13:09:18;98529.34;;;20.12;47.32
40872;BME280;26591;43.264;26.940;2023-04-24T13:11:44;98524.28;;;20.16;47.57
40872;BME280;26591;43.264;26.940;2023-04-24T13:14:09;98521.88;;;20.14;47.67